createdAt,value
2022-07-30T00:01:42.764Z,5.07
2022-07-30T00:04:10.439Z,5.00
2022-07-30T00:06:40.121Z,5.53
2022-07-30T00:09:07.908Z,5.50
2022-07-30T00:11:35.758Z,5.40
2022-07-30T00:14:03.429Z,5.80
2022-07-30T00:16:30.969Z,5.18
2022-07-30T00:18:58.623Z,5.43
2022-07-30T00:21:36.320Z,5.70
2022-07-30T00:24:08.836Z,5.25
2022-07-30T00:26:36.593Z,5.72
2022-07-30T00:29:05.068Z,5.63
2022-07-30T00:31:33.544Z,5.80
2022-07-30T00:34:01.140Z,5.50
2022-07-30T00:36:28.737Z,5.40
2022-07-30T00:38:56.698Z,5.55
2022-07-30T00:41:26.377Z,5.32
2022-07-30T00:43:53.875Z,5.55
2022-07-30T00:46:21.450Z,5.28
2022-07-30T00:48:49.185Z,5.68
2022-07-30T00:51:16.867Z,5.60
2022-07-30T00:53:44.448Z,5.75
2022-07-30T00:56:11.977Z,5.70
2022-07-30T00:58:39.944Z,5.78
2022-07-30T01:01:07.514Z,6.22
2022-07-30T01:03:35.136Z,6.10
2022-07-30T01:06:02.756Z,5.80
2022-07-30T01:08:30.307Z,5.40
2022-07-30T01:10:57.884Z,5.18
2022-07-30T01:13:25.483Z,5.80
2022-07-30T01:15:54.367Z,5.40
2022-07-30T01:18:24.366Z,5.80
2022-07-30T01:21:12.507Z,5.07
2022-07-30T01:23:45.769Z,5.70
2022-07-30T01:26:17.994Z,5.10
2022-07-30T01:28:56.207Z,5.75
2022-07-30T01:31:26.967Z,5.05
2022-07-30T01:33:56.923Z,5.38
2022-07-30T01:36:28.637Z,5.22
2022-07-30T01:38:58.396Z,5.32
2022-07-30T01:41:26.925Z,5.43
2022-07-30T01:43:55.997Z,4.95
2022-07-30T01:46:25.284Z,5.30
2022-07-30T01:48:56.196Z,5.30
2022-07-30T01:51:26.467Z,5.47
2022-07-30T01:54:02.037Z,5.45
2022-07-30T01:56:31.613Z,5.38
2022-07-30T01:59:04.935Z,5.13
2022-07-30T02:01:32.937Z,5.05
2022-07-30T02:04:03.188Z,6.10
2022-07-30T02:06:42.528Z,6.13
2022-07-30T02:09:20.283Z,5.47
2022-07-30T02:12:26.817Z,5.70
2022-07-30T02:15:07.384Z,6.00
2022-07-30T02:18:00.578Z,5.20
2022-07-30T02:20:31.965Z,5.47
2022-07-30T02:23:10.266Z,6.60
2022-07-30T02:25:43.948Z,6.00
2022-07-30T02:28:14.748Z,6.30
2022-07-30T02:30:53.697Z,6.95
2022-07-30T02:33:33.497Z,6.75
2022-07-30T02:36:03.796Z,6.80
2022-07-30T02:38:40.287Z,6.68
2022-07-30T02:41:10.420Z,7.50
2022-07-30T02:43:41.710Z,7.03
2022-07-30T02:46:13.602Z,6.35
2022-07-30T02:49:02.515Z,7.35
2022-07-30T02:51:31.874Z,8.15
2022-07-30T02:54:04.138Z,7.10
2022-07-30T02:56:33.864Z,7.75
2022-07-30T02:59:03.277Z,7.50
2022-07-30T03:01:32.504Z,7.07
2022-07-30T03:04:01.764Z,7.82
2022-07-30T03:06:31.217Z,7.10
2022-07-30T03:09:03.347Z,7.68
2022-07-30T03:11:33.276Z,7.30
2022-07-30T03:14:02.566Z,7.35
2022-07-30T03:16:34.825Z,7.78
2022-07-30T03:19:05.315Z,8.50
2022-07-30T03:21:35.733Z,7.50
2022-07-30T03:24:06.748Z,7.53
2022-07-30T03:26:36.616Z,7.75
2022-07-30T03:29:05.407Z,7.75
2022-07-30T03:31:36.462Z,9.00
2022-07-30T03:34:10.129Z,8.63
2022-07-30T03:39:10.383Z,8.82
2022-07-30T03:41:39.637Z,8.93
2022-07-30T03:44:11.778Z,9.00
2022-07-30T03:46:41.397Z,8.23
2022-07-30T03:49:11.084Z,8.10
2022-07-30T03:51:43.706Z,9.13
2022-07-30T03:54:13.757Z,8.57
2022-07-30T03:56:42.438Z,9.68
2022-07-30T04:02:04.022Z,10.02
2022-07-30T04:04:53.438Z,9.65
2022-07-30T04:07:21.716Z,9.77
2022-07-30T04:09:49.184Z,10.48
2022-07-30T04:12:32.194Z,10.48
2022-07-30T04:15:00.036Z,10.57
2022-07-30T04:17:46.742Z,10.23
2022-07-30T04:20:26.146Z,10.48
2022-07-30T04:22:55.043Z,10.15
2022-07-30T04:25:24.572Z,9.55
2022-07-30T04:28:03.186Z,9.57
2022-07-30T04:30:35.084Z,10.20
2022-07-30T04:33:05.726Z,10.80
2022-07-30T04:35:56.378Z,9.97
2022-07-30T04:38:30.593Z,10.48
2022-07-30T04:40:58.355Z,10.95
2022-07-30T04:43:28.714Z,11.00
2022-07-30T04:45:56.350Z,10.27
2022-07-30T04:48:26.948Z,9.77
2022-07-30T04:51:23.626Z,9.68
2022-07-30T04:53:54.049Z,9.35
2022-07-30T04:56:22.987Z,9.93
2022-07-30T04:58:53.267Z,10.07
2022-07-30T05:01:40.229Z,9.88
2022-07-30T05:04:10.999Z,9.98
2022-07-30T05:06:40.766Z,9.38
2022-07-30T05:09:09.120Z,8.75
2022-07-30T05:11:36.774Z,9.48
2022-07-30T05:14:04.394Z,9.75
2022-07-30T05:16:34.207Z,8.32
2022-07-30T05:19:07.723Z,9.90
2022-07-30T05:21:37.902Z,9.88
2022-07-30T05:24:06.331Z,9.88
2022-07-30T05:26:49.859Z,9.40
2022-07-30T05:29:20.306Z,9.07
2022-07-30T05:31:52.456Z,9.82
2022-07-30T05:34:23.211Z,9.60
2022-07-30T05:36:52.548Z,9.32
2022-07-30T05:39:20.959Z,10.90
2022-07-30T05:42:12.064Z,9.50
2022-07-30T05:44:52.126Z,9.60
2022-07-30T05:47:21.313Z,9.35
2022-07-30T05:49:51.710Z,9.50
2022-07-30T05:52:19.557Z,9.30
2022-07-30T05:54:53.131Z,8.77
2022-07-30T05:57:51.361Z,9.07
2022-07-30T06:00:19.111Z,8.85
2022-07-30T06:02:51.741Z,8.20
2022-07-30T06:05:37.801Z,7.95
2022-07-30T06:08:07.142Z,7.60
2022-07-30T06:10:34.992Z,8.05
2022-07-30T06:13:02.883Z,7.85
2022-07-30T06:15:30.538Z,8.27
2022-07-30T06:18:01.917Z,7.97
2022-07-30T06:20:47.041Z,7.85
2022-07-30T06:23:21.727Z,7.25
2022-07-30T06:26:09.469Z,7.68
2022-07-30T06:28:38.829Z,7.82
2022-07-30T06:31:15.504Z,7.03
2022-07-30T06:33:43.577Z,7.70
2022-07-30T06:36:13.976Z,7.68
2022-07-30T06:39:53.882Z,7.13
2022-07-30T06:42:15.348Z,7.10
2022-07-30T06:45:02.851Z,7.00
2022-07-30T06:47:50.321Z,7.38
2022-07-30T06:50:20.431Z,7.30
2022-07-30T06:52:47.979Z,7.28
2022-07-30T06:55:15.701Z,7.65
2022-07-30T06:57:48.319Z,8.45
2022-07-30T07:00:36.045Z,7.43
2022-07-30T07:03:11.792Z,6.80
2022-07-30T07:05:39.912Z,7.53
2022-07-30T07:08:07.370Z,7.85
2022-07-30T07:10:39.122Z,7.80
2022-07-30T07:13:14.261Z,7.30
2022-07-30T07:15:42.438Z,7.75
2022-07-30T07:18:15.533Z,7.60
2022-07-30T07:20:50.831Z,7.30
2022-07-30T07:23:19.912Z,7.47
2022-07-30T07:25:50.361Z,7.38
2022-07-30T07:28:18.212Z,7.07
2022-07-30T07:30:46.035Z,7.15
2022-07-30T07:33:15.710Z,7.18
2022-07-30T07:35:49.768Z,6.57
2022-07-30T07:38:28.451Z,6.80
2022-07-30T07:40:57.840Z,7.25
2022-07-30T07:43:25.583Z,7.00
2022-07-30T07:45:56.199Z,6.60
2022-07-30T07:48:24.527Z,7.25
2022-07-30T07:51:00.052Z,6.50
2022-07-30T07:55:59.816Z,6.47
2022-07-30T07:58:27.569Z,6.63
2022-07-30T08:01:02.505Z,6.10
2022-07-30T08:03:50.048Z,6.70
2022-07-30T08:06:36.816Z,7.25
2022-07-30T08:09:23.148Z,7.28
2022-07-30T08:12:10.798Z,6.38
2022-07-30T08:14:58.636Z,6.57
2022-07-30T08:17:49.293Z,6.25
2022-07-30T08:20:20.244Z,6.32
2022-07-30T08:22:47.997Z,6.88
2022-07-30T08:25:22.399Z,7.22
2022-07-30T08:27:52.582Z,6.97
2022-07-30T08:30:21.377Z,7.60
2022-07-30T08:32:49.244Z,7.53
2022-07-30T08:35:16.806Z,7.47
2022-07-30T08:37:44.766Z,7.93
2022-07-30T08:40:12.588Z,8.27
2022-07-30T08:42:53.016Z,7.90
2022-07-30T08:45:21.518Z,7.90
2022-07-30T08:48:33.547Z,7.97
2022-07-30T08:51:02.456Z,8.60
2022-07-30T08:53:57.968Z,8.00
2022-07-30T08:56:25.718Z,9.15
2022-07-30T08:58:53.587Z,10.63
2022-07-30T09:01:22.956Z,9.77
2022-07-30T09:03:50.488Z,9.18
2022-07-30T09:06:18.227Z,9.85
2022-07-30T09:08:45.986Z,9.40
2022-07-30T09:11:14.188Z,9.57
2022-07-30T09:13:43.056Z,9.55
2022-07-30T09:16:27.057Z,11.50
2022-07-30T09:19:21.930Z,11.05
2022-07-30T09:22:01.425Z,11.95
2022-07-30T09:24:58.027Z,11.60
2022-07-30T09:27:49.297Z,11.32
2022-07-30T09:30:54.021Z,11.18
2022-07-30T09:36:32.062Z,11.95
2022-07-30T09:39:36.054Z,11.48
2022-07-30T09:42:25.920Z,12.85
2022-07-30T09:45:12.673Z,11.38
2022-07-30T09:47:45.616Z,11.52
2022-07-30T09:50:18.080Z,10.75
2022-07-30T09:53:11.831Z,10.68
2022-07-30T09:55:42.786Z,9.43
2022-07-30T09:58:12.964Z,9.90
2022-07-30T10:00:45.098Z,9.50
2022-07-30T10:03:41.827Z,9.15
2022-07-30T10:06:41.813Z,9.30
2022-07-30T10:09:37.504Z,8.90
2022-07-30T10:12:11.370Z,9.05
2022-07-30T10:14:45.830Z,8.52
2022-07-30T10:17:18.155Z,8.15
2022-07-30T10:19:56.934Z,8.10
2022-07-30T10:22:53.924Z,7.40
2022-07-30T10:25:27.873Z,8.68
2022-07-30T10:28:16.442Z,7.55
2022-07-30T10:30:45.404Z,7.38
2022-07-30T10:33:36.280Z,7.50
2022-07-30T10:36:02.482Z,8.70
2022-07-30T10:38:39.261Z,8.18
2022-07-30T10:41:22.058Z,9.10
2022-07-30T10:44:05.315Z,9.23
2022-07-30T10:46:57.469Z,8.70
2022-07-30T10:49:26.161Z,8.98
2022-07-30T10:51:57.460Z,9.73
2022-07-30T10:54:36.568Z,9.63
2022-07-30T10:57:32.966Z,9.02
2022-07-30T11:00:10.030Z,9.20
2022-07-30T11:02:39.973Z,8.52
2022-07-30T11:05:37.522Z,8.63
2022-07-30T11:08:31.857Z,8.65
2022-07-30T11:12:01.214Z,8.35
2022-07-30T11:14:12.988Z,8.82
2022-07-30T11:16:40.693Z,9.98
2022-07-30T11:19:56.877Z,9.23
2022-07-30T11:22:25.593Z,7.85
2022-07-30T11:24:53.812Z,8.95
2022-07-30T11:27:41.506Z,10.35
2022-07-30T11:30:23.549Z,12.10
2022-07-30T11:32:57.059Z,10.80
2022-07-30T11:35:34.688Z,9.73
2022-07-30T11:38:19.060Z,7.80
2022-07-30T11:40:46.853Z,8.13
2022-07-30T11:43:17.770Z,8.05
2022-07-30T11:45:50.361Z,7.90
2022-07-30T11:48:19.421Z,8.38
2022-07-30T11:50:48.381Z,7.65
2022-07-30T11:53:21.433Z,7.45
2022-07-30T11:55:57.840Z,7.97
2022-07-30T11:58:34.861Z,8.30
2022-07-30T12:01:11.837Z,8.70
2022-07-30T12:03:44.884Z,8.25
2022-07-30T12:06:20.360Z,7.73
2022-07-30T12:08:53.950Z,8.13
2022-07-30T12:11:25.061Z,8.60
2022-07-30T12:14:00.307Z,8.65
2022-07-30T12:16:29.162Z,7.45
2022-07-30T12:19:02.314Z,7.70
2022-07-30T12:21:29.913Z,7.72
2022-07-30T12:24:02.621Z,8.95
2022-07-30T12:26:32.630Z,7.93
2022-07-30T12:29:13.744Z,6.75
2022-07-30T12:31:41.912Z,8.38
2022-07-30T12:34:24.671Z,6.90
2022-07-30T12:36:52.511Z,7.70
2022-07-30T12:39:22.432Z,8.57
2022-07-30T12:41:52.211Z,7.80
2022-07-30T12:44:38.071Z,8.07
2022-07-30T12:47:18.231Z,7.85
2022-07-30T12:49:48.862Z,8.00
2022-07-30T12:52:27.596Z,7.53
2022-07-30T12:54:57.882Z,7.68
2022-07-30T12:57:25.458Z,7.55
2022-07-30T13:00:07.567Z,5.50
2022-07-30T13:02:36.414Z,7.63
2022-07-30T13:05:11.766Z,8.18
2022-07-30T13:07:55.590Z,7.47
2022-07-30T13:10:28.532Z,7.15
2022-07-30T13:12:58.665Z,6.30
2022-07-30T13:15:26.624Z,7.20
2022-07-30T13:17:54.418Z,6.30
2022-07-30T13:20:22.733Z,6.53
2022-07-30T13:22:50.215Z,6.82
2022-07-30T13:25:18.291Z,6.78
2022-07-30T13:27:45.757Z,6.13
2022-07-30T13:30:13.722Z,6.63
2022-07-30T13:32:41.223Z,8.10
2022-07-30T13:35:09.339Z,7.63
2022-07-30T13:37:37.591Z,7.38
2022-07-30T13:40:07.111Z,7.40
2022-07-30T13:42:35.462Z,7.55
2022-07-30T13:45:02.937Z,7.90
2022-07-30T13:47:30.491Z,8.43
2022-07-30T13:49:57.982Z,8.05
2022-07-30T13:52:25.672Z,7.53
2022-07-30T13:54:54.512Z,7.72
2022-07-30T13:57:22.101Z,7.70
2022-07-30T13:59:49.636Z,8.45
2022-07-30T14:02:17.320Z,7.97
2022-07-30T14:04:44.911Z,7.82
2022-07-30T14:07:12.412Z,6.45
2022-07-30T14:09:47.064Z,6.70
2022-07-30T14:12:16.359Z,6.60
2022-07-30T14:14:43.798Z,6.95
2022-07-30T14:17:11.335Z,6.55
2022-07-30T14:19:38.898Z,6.68
2022-07-30T14:22:06.457Z,6.90
2022-07-30T14:24:34.031Z,6.85
2022-07-30T14:27:01.856Z,6.85
2022-07-30T14:29:29.545Z,7.05
2022-07-30T14:31:57.120Z,8.07
2022-07-30T14:34:24.698Z,7.45
2022-07-30T14:36:52.229Z,7.15
2022-07-30T14:39:20.667Z,8.02
2022-07-30T14:41:48.694Z,8.23
2022-07-30T14:44:20.018Z,5.93
2022-07-30T14:46:52.223Z,7.22
2022-07-30T14:49:21.873Z,2.92
2022-07-30T14:51:50.790Z,2.70
2022-07-30T14:54:18.756Z,2.65
2022-07-30T14:56:46.538Z,3.15
2022-07-30T14:59:14.149Z,3.35
2022-07-30T15:01:42.327Z,2.33
2022-07-30T15:04:10.879Z,2.85
2022-07-30T15:06:40.814Z,2.70
2022-07-30T15:09:09.286Z,3.08
2022-07-30T15:12:04.214Z,2.90
2022-07-30T15:14:24.398Z,2.92
2022-07-30T15:16:52.604Z,2.60
2022-07-30T15:19:20.153Z,2.83
2022-07-30T15:21:47.618Z,2.97
2022-07-30T15:24:15.327Z,2.60
2022-07-30T15:26:42.788Z,2.25
2022-07-30T15:29:13.280Z,3.15
2022-07-30T15:31:41.168Z,2.80
2022-07-30T15:34:12.746Z,2.90
2022-07-30T15:36:40.385Z,2.83
2022-07-30T15:39:07.876Z,3.00
2022-07-30T15:41:37.196Z,3.55
2022-07-30T15:44:05.051Z,2.72
2022-07-30T15:46:32.678Z,3.08
2022-07-30T15:49:00.252Z,2.95
2022-07-30T15:51:28.007Z,2.88
2022-07-30T15:53:55.911Z,3.17
2022-07-30T15:56:24.334Z,3.03
2022-07-30T15:58:52.739Z,2.90
2022-07-30T16:01:20.342Z,3.05
2022-07-30T16:03:47.903Z,3.20
2022-07-30T16:06:15.524Z,2.90
2022-07-30T16:08:43.039Z,2.50
2022-07-30T16:11:10.829Z,2.60
2022-07-30T16:13:38.857Z,2.60
2022-07-30T16:16:06.376Z,2.85
2022-07-30T16:18:33.879Z,2.35
2022-07-30T16:21:01.553Z,2.20
2022-07-30T16:23:36.246Z,2.03
2022-07-30T16:26:04.741Z,1.80
2022-07-30T16:28:32.609Z,1.90
2022-07-30T16:31:00.167Z,2.00
2022-07-30T16:33:27.633Z,2.17
2022-07-30T16:35:55.406Z,1.92
2022-07-30T16:38:25.944Z,2.47
2022-07-30T16:40:53.586Z,2.28
2022-07-30T16:43:21.228Z,2.10
2022-07-30T16:45:48.906Z,1.98
2022-07-30T16:48:16.507Z,2.53
2022-07-30T16:50:44.876Z,2.10
2022-07-30T16:53:14.382Z,2.17
2022-07-30T16:55:43.677Z,2.22
2022-07-30T16:58:12.241Z,2.40
2022-07-30T17:00:40.315Z,2.80
2022-07-30T17:03:08.782Z,3.15
2022-07-30T17:05:50.556Z,2.42
2022-07-30T17:08:18.586Z,2.10
2022-07-30T17:10:53.727Z,2.58
2022-07-30T17:13:21.998Z,2.70
2022-07-30T17:15:49.645Z,2.20
2022-07-30T17:18:17.506Z,2.33
2022-07-30T17:20:45.503Z,2.33
2022-07-30T17:23:13.058Z,5.65
2022-07-30T17:25:40.687Z,2.58
2022-07-30T17:28:08.547Z,2.40
2022-07-30T17:30:36.125Z,2.22
2022-07-30T17:33:06.421Z,5.80
2022-07-30T17:35:34.358Z,2.95
2022-07-30T17:38:02.226Z,10.63
2022-07-30T17:40:31.792Z,4.68
2022-07-30T17:43:04.407Z,3.33
2022-07-30T17:45:33.709Z,2.85
2022-07-30T17:48:04.110Z,5.13
2022-07-30T17:50:32.953Z,2.80
2022-07-30T17:53:03.715Z,2.65
2022-07-30T17:55:35.264Z,2.20
2022-07-30T17:58:06.280Z,2.60
2022-07-30T18:00:35.566Z,2.30
2022-07-30T18:03:03.822Z,2.40
2022-07-30T18:05:31.535Z,2.65
2022-07-30T18:07:59.209Z,2.28
2022-07-30T18:10:26.766Z,2.72
2022-07-30T18:12:54.377Z,2.33
2022-07-30T18:15:22.177Z,2.33
2022-07-30T18:17:49.713Z,2.40
2022-07-30T18:20:17.416Z,2.58
2022-07-30T18:22:45.067Z,2.40
2022-07-30T18:25:18.534Z,2.45
2022-07-30T18:27:48.198Z,2.63
2022-07-30T18:30:16.116Z,2.50
2022-07-30T18:32:46.698Z,2.30
2022-07-30T18:35:15.358Z,2.40
2022-07-30T18:37:44.298Z,2.72
2022-07-30T18:40:13.726Z,2.35
2022-07-30T18:42:42.064Z,4.15
2022-07-30T18:45:13.883Z,4.72
2022-07-30T18:47:42.842Z,4.63
2022-07-30T18:50:12.367Z,5.13
2022-07-30T18:52:40.427Z,6.25
2022-07-30T18:55:11.453Z,7.03
2022-07-30T18:57:39.503Z,8.15
2022-07-30T19:00:10.247Z,8.20
2022-07-30T19:02:58.126Z,8.02
2022-07-30T19:05:25.746Z,7.57
2022-07-30T19:07:57.169Z,9.70
2022-07-30T19:10:26.657Z,7.93
2022-07-30T19:12:55.780Z,7.60
2022-07-30T19:15:23.770Z,9.15
2022-07-30T19:17:51.925Z,8.75
2022-07-30T19:20:20.268Z,8.48
2022-07-30T19:22:47.986Z,9.27
2022-07-30T19:25:18.255Z,8.95
2022-07-30T19:27:45.899Z,11.23
2022-07-30T19:30:13.665Z,11.80
2022-07-30T19:32:41.373Z,10.95
2022-07-30T19:35:13.615Z,9.20
2022-07-30T19:37:42.757Z,11.57
2022-07-30T19:40:10.935Z,9.63
2022-07-30T19:42:41.415Z,9.05
2022-07-30T19:45:13.075Z,9.90
2022-07-30T19:47:42.572Z,9.20
2022-07-30T19:50:11.495Z,10.45
2022-07-30T19:52:50.973Z,9.82
2022-07-30T19:55:31.110Z,10.27
2022-07-30T19:58:15.945Z,9.13
2022-07-30T20:00:49.248Z,10.60
2022-07-30T20:03:26.257Z,9.83
2022-07-30T20:06:01.028Z,10.70
2022-07-30T20:08:28.664Z,12.02
2022-07-30T20:11:07.513Z,13.27
2022-07-30T20:13:45.185Z,11.15
2022-07-30T20:16:15.846Z,10.02
2022-07-30T20:18:46.089Z,9.82
2022-07-30T20:21:16.044Z,9.57
2022-07-30T20:23:45.130Z,10.02
2022-07-30T20:26:14.923Z,9.20
2022-07-30T20:28:44.935Z,8.07
2022-07-30T20:31:14.602Z,8.95
2022-07-30T20:33:43.031Z,9.43
2022-07-30T20:36:12.474Z,10.65
2022-07-30T20:38:44.598Z,10.68
2022-07-30T20:41:14.598Z,12.43
2022-07-30T20:43:51.622Z,13.80
2022-07-30T20:46:23.293Z,13.73
2022-07-30T20:51:41.699Z,12.90
2022-07-30T20:54:09.214Z,12.30
2022-07-30T20:56:36.781Z,10.75
2022-07-30T20:59:04.316Z,11.90
2022-07-30T21:01:31.906Z,11.10
2022-07-30T21:04:02.153Z,13.50
2022-07-30T21:06:31.422Z,14.80
2022-07-30T21:09:02.296Z,16.13
2022-07-30T21:11:29.995Z,14.02
2022-07-30T21:13:58.023Z,13.88
2022-07-30T21:16:27.374Z,17.67
2022-07-30T21:18:58.313Z,26.92
2022-07-30T21:21:30.804Z,22.08
2022-07-30T21:24:11.913Z,23.35
2022-07-30T21:26:43.313Z,21.13
2022-07-30T21:29:11.460Z,17.70
2022-07-30T21:31:59.093Z,16.80
2022-07-30T21:34:28.123Z,14.07
2022-07-30T21:36:58.617Z,14.27
2022-07-30T21:39:28.998Z,14.75
2022-07-30T21:41:57.626Z,15.05
2022-07-30T21:44:25.274Z,15.27
2022-07-30T21:46:53.750Z,15.73
2022-07-30T21:49:23.335Z,15.10
2022-07-30T21:51:51.044Z,14.30
2022-07-30T21:54:28.696Z,14.43
2022-07-30T21:56:58.077Z,15.85
2022-07-30T21:59:27.639Z,14.27
2022-07-30T22:01:56.090Z,15.65
2022-07-30T22:04:23.590Z,16.70
2022-07-30T22:06:54.457Z,16.20
2022-07-30T22:09:33.426Z,15.63
2022-07-30T22:12:06.418Z,16.27
2022-07-30T22:14:37.450Z,15.07
2022-07-30T22:17:05.113Z,11.50
2022-07-30T22:19:32.952Z,12.27
2022-07-30T22:22:05.307Z,13.13
2022-07-30T22:24:47.999Z,11.40
2022-07-30T22:27:15.724Z,13.02
2022-07-30T22:29:44.131Z,11.60
2022-07-30T22:32:12.448Z,13.07
2022-07-30T22:34:40.029Z,13.10
2022-07-30T22:37:12.490Z,12.68
2022-07-30T22:39:51.768Z,12.48
2022-07-30T22:42:23.907Z,14.07
2022-07-30T22:44:53.303Z,13.88
2022-07-30T22:47:51.500Z,14.38
2022-07-30T22:50:11.749Z,14.05
2022-07-30T22:52:52.477Z,14.43
2022-07-30T22:55:28.624Z,14.57
2022-07-30T22:57:57.350Z,14.43
2022-07-30T23:00:27.400Z,14.98
2022-07-30T23:02:56.992Z,13.18
2022-07-30T23:05:25.244Z,13.45
2022-07-30T23:07:53.969Z,13.05
2022-07-30T23:10:21.624Z,11.60
2022-07-30T23:12:18.532Z,13.48
2022-07-30T23:12:52.764Z,14.65
2022-07-30T23:15:20.948Z,14.63
2022-07-30T23:17:48.602Z,13.10
2022-07-30T23:20:20.677Z,13.95
2022-07-30T23:22:49.480Z,12.52
2022-07-30T23:25:17.582Z,12.55
2022-07-30T23:27:46.955Z,14.15
2022-07-30T23:30:15.081Z,14.73
2022-07-30T23:32:42.643Z,15.35
2022-07-30T23:35:10.395Z,14.35
2022-07-30T23:37:48.476Z,13.75
2022-07-30T23:40:19.765Z,13.35
2022-07-30T23:42:50.227Z,13.10
2022-07-30T23:45:18.756Z,13.35
2022-07-30T23:48:01.582Z,14.25
2022-07-30T23:53:02.851Z,14.27
2022-07-30T23:55:31.946Z,13.55
2022-07-30T23:58:00.448Z,13.90
